createdAt,value
2018-12-04T00:00:45.303Z,989.63
2018-12-04T00:01:45.228Z,989.65
2018-12-04T00:02:45.227Z,989.65
2018-12-04T00:03:45.203Z,989.61
2018-12-04T00:04:45.192Z,989.61
2018-12-04T00:05:45.210Z,989.66
2018-12-04T00:06:45.170Z,989.63
2018-12-04T00:07:45.157Z,989.61
2018-12-04T00:08:45.148Z,989.66
2018-12-04T00:09:45.167Z,989.67
2018-12-04T00:10:45.187Z,989.66
2018-12-04T00:11:45.115Z,989.68
2018-12-04T00:12:45.107Z,989.72
2018-12-04T00:13:45.098Z,989.74
2018-12-04T00:14:45.082Z,989.73
2018-12-04T00:15:45.083Z,989.77
2018-12-04T00:16:45.078Z,989.71
2018-12-04T00:17:45.082Z,989.74
2018-12-04T00:18:45.048Z,989.69
2018-12-04T00:19:45.046Z,989.71
2018-12-04T00:20:45.017Z,989.74
2018-12-04T00:21:45.044Z,989.75
2018-12-04T00:22:45.006Z,989.71
2018-12-04T00:23:45.027Z,989.71
2018-12-04T00:24:44.981Z,989.79
2018-12-04T00:25:44.982Z,989.74
2018-12-04T00:26:44.977Z,989.73
2018-12-04T00:27:44.963Z,989.69
2018-12-04T00:28:44.940Z,989.75
2018-12-04T00:29:44.939Z,989.77
2018-12-04T00:30:44.903Z,989.79
2018-12-04T00:31:44.903Z,989.82
2018-12-04T00:32:44.925Z,989.83
2018-12-04T00:33:44.881Z,989.83
2018-12-04T00:34:44.858Z,989.87
2018-12-04T00:35:44.892Z,989.95
2018-12-04T00:36:44.851Z,989.88
2018-12-04T00:37:44.845Z,989.94
2018-12-04T00:38:44.834Z,989.95
2018-12-04T00:39:44.804Z,989.88
2018-12-04T00:40:44.808Z,989.92
2018-12-04T00:41:44.797Z,989.91
2018-12-04T00:42:44.821Z,989.92
2018-12-04T00:43:44.840Z,989.90
2018-12-04T00:44:44.752Z,989.91
2018-12-04T00:45:44.747Z,989.92
2018-12-04T00:46:44.739Z,989.86
2018-12-04T00:47:44.730Z,989.98
2018-12-04T00:48:44.702Z,989.95
2018-12-04T00:49:44.729Z,989.93
2018-12-04T00:50:44.683Z,989.94
2018-12-04T00:51:44.679Z,989.94
2018-12-04T00:52:44.660Z,990.00
2018-12-04T00:53:44.652Z,990.01
2018-12-04T00:54:44.671Z,989.99
2018-12-04T00:55:44.626Z,989.98
2018-12-04T00:56:44.639Z,989.99
2018-12-04T00:57:44.608Z,990.00
2018-12-04T00:58:44.596Z,990.00
2018-12-04T00:59:44.586Z,989.97
2018-12-04T01:00:44.616Z,990.02
2018-12-04T01:01:44.569Z,989.99
2018-12-04T01:02:44.553Z,990.00
2018-12-04T01:03:44.535Z,990.01
2018-12-04T01:04:44.527Z,990.05
2018-12-04T01:05:44.541Z,990.04
2018-12-04T01:06:44.537Z,990.02
2018-12-04T01:07:44.498Z,990.06
2018-12-04T01:08:44.490Z,990.03
2018-12-04T01:09:44.471Z,990.10
2018-12-04T01:10:44.519Z,990.12
2018-12-04T01:11:44.484Z,990.15
2018-12-04T01:12:44.443Z,990.10
2018-12-04T01:13:44.427Z,990.12
2018-12-04T01:14:44.416Z,990.23
2018-12-04T01:15:44.433Z,990.16
2018-12-04T01:16:44.416Z,990.23
2018-12-04T01:17:44.395Z,990.25
2018-12-04T01:18:44.379Z,990.24
2018-12-04T01:19:44.359Z,990.26
2018-12-04T01:20:44.362Z,990.21
2018-12-04T01:21:44.378Z,990.28
2018-12-04T01:22:44.326Z,990.34
2018-12-04T01:23:44.326Z,990.31
2018-12-04T01:24:44.310Z,990.34
2018-12-04T01:25:44.293Z,990.35
2018-12-04T01:26:44.333Z,990.37
2018-12-04T01:27:44.304Z,990.37
2018-12-04T01:28:44.265Z,990.43
2018-12-04T01:29:44.261Z,990.43
2018-12-04T01:30:44.250Z,990.47
2018-12-04T01:31:44.276Z,990.48
2018-12-04T01:32:44.250Z,990.46
2018-12-04T01:33:44.244Z,990.53
2018-12-04T01:34:44.208Z,990.45
2018-12-04T01:35:44.185Z,990.47
2018-12-04T01:36:44.183Z,990.55
2018-12-04T01:37:44.171Z,990.53
2018-12-04T01:38:44.197Z,990.52
2018-12-04T01:39:44.137Z,990.50
2018-12-04T01:40:44.135Z,990.56
2018-12-04T01:41:44.123Z,990.53
2018-12-04T01:42:44.115Z,990.55
2018-12-04T01:43:44.138Z,990.56
2018-12-04T01:44:44.082Z,990.54
2018-12-04T01:45:44.089Z,990.58
2018-12-04T01:46:44.139Z,990.61
2018-12-04T01:47:44.097Z,990.51
2018-12-04T01:48:44.058Z,990.55
2018-12-04T01:49:44.045Z,990.55
2018-12-04T01:50:44.024Z,990.62
2018-12-04T01:51:44.010Z,990.55
2018-12-04T01:52:43.998Z,990.55
2018-12-04T01:53:43.990Z,990.55
2018-12-04T01:54:43.991Z,990.57
2018-12-04T01:55:43.970Z,990.55
2018-12-04T01:56:43.961Z,990.57
2018-12-04T01:57:43.944Z,990.56
2018-12-04T01:58:43.928Z,990.62
2018-12-04T01:59:43.956Z,990.57
2018-12-04T02:00:43.906Z,990.56
2018-12-04T02:01:43.904Z,990.63
2018-12-04T02:02:43.885Z,990.67
2018-12-04T02:03:43.875Z,990.63
2018-12-04T02:04:43.897Z,990.70
2018-12-04T02:05:43.859Z,990.67
2018-12-04T02:06:43.845Z,990.71
2018-12-04T02:07:43.831Z,990.79
2018-12-04T02:08:43.821Z,990.70
2018-12-04T02:09:43.813Z,990.75
2018-12-04T02:10:43.815Z,990.71
2018-12-04T02:11:43.794Z,990.70
2018-12-04T02:12:43.780Z,990.77
2018-12-04T02:13:43.764Z,990.69
2018-12-04T02:14:43.750Z,990.77
2018-12-04T02:15:43.777Z,990.78
2018-12-04T02:16:43.730Z,990.82
2018-12-04T02:17:43.724Z,990.89
2018-12-04T02:18:43.713Z,990.88
2018-12-04T02:19:43.700Z,990.96
2018-12-04T02:20:43.692Z,990.87
2018-12-04T02:21:43.695Z,990.89
2018-12-04T02:22:43.660Z,990.87
2018-12-04T02:23:43.666Z,990.89
2018-12-04T02:24:43.638Z,990.93
2018-12-04T02:25:43.640Z,990.91
2018-12-04T02:26:43.637Z,990.93
2018-12-04T02:27:43.611Z,990.88
2018-12-04T02:28:43.601Z,990.91
2018-12-04T02:29:43.585Z,990.92
2018-12-04T02:30:43.572Z,990.89
2018-12-04T02:31:43.604Z,990.91
2018-12-04T02:32:43.557Z,990.90
2018-12-04T02:33:43.541Z,990.89
2018-12-04T02:34:43.536Z,990.91
2018-12-04T02:35:43.522Z,990.94
2018-12-04T02:36:43.545Z,990.89
2018-12-04T02:37:43.549Z,990.95
2018-12-04T02:38:43.509Z,990.97
2018-12-04T02:39:43.508Z,990.94
2018-12-04T02:40:43.467Z,990.95
2018-12-04T02:41:43.456Z,990.96
2018-12-04T02:42:43.486Z,991.03
2018-12-04T02:43:43.428Z,990.97
2018-12-04T02:44:43.436Z,990.98
2018-12-04T02:45:43.419Z,991.02
2018-12-04T02:46:43.448Z,991.05
2018-12-04T02:47:43.389Z,991.03
2018-12-04T02:48:43.405Z,991.04
2018-12-04T02:49:43.366Z,991.07
2018-12-04T02:50:43.364Z,991.21
2018-12-04T02:51:43.346Z,991.10
2018-12-04T02:52:43.340Z,991.19
2018-12-04T02:53:43.417Z,991.24
2018-12-04T02:54:43.314Z,991.16
2018-12-04T02:55:43.302Z,991.19
2018-12-04T02:56:43.299Z,991.19
2018-12-04T02:57:43.310Z,991.21
2018-12-04T02:58:43.267Z,991.18
2018-12-04T02:59:43.300Z,991.18
2018-12-04T03:00:43.259Z,991.20
2018-12-04T03:01:43.235Z,991.23
2018-12-04T03:02:43.239Z,991.23
2018-12-04T03:03:43.219Z,991.22
2018-12-04T03:04:43.226Z,991.26
2018-12-04T03:05:43.204Z,991.28
2018-12-04T03:06:43.188Z,991.29
2018-12-04T03:07:43.165Z,991.37
2018-12-04T03:08:43.172Z,991.37
2018-12-04T03:09:43.152Z,991.46
2018-12-04T03:10:43.179Z,991.38
2018-12-04T03:11:43.139Z,991.44
2018-12-04T03:12:43.130Z,991.42
2018-12-04T03:13:43.097Z,991.61
2018-12-04T03:14:43.090Z,991.52
2018-12-04T03:15:43.109Z,991.56
2018-12-04T03:16:43.068Z,991.55
2018-12-04T03:17:43.068Z,991.56
2018-12-04T03:18:43.048Z,991.55
2018-12-04T03:19:43.038Z,991.62
2018-12-04T03:20:43.024Z,991.56
2018-12-04T03:21:43.062Z,991.54
2018-12-04T03:22:43.035Z,991.57
2018-12-04T03:23:42.987Z,991.59
2018-12-04T03:24:42.995Z,991.73
2018-12-04T03:25:42.969Z,992.11
2018-12-04T03:26:43.000Z,992.38
2018-12-04T03:27:42.953Z,992.34
2018-12-04T03:28:42.952Z,992.41
2018-12-04T03:29:42.932Z,992.34
2018-12-04T03:30:42.919Z,992.46
2018-12-04T03:31:42.913Z,992.44
2018-12-04T03:32:42.953Z,992.49
2018-12-04T03:33:42.902Z,992.54
2018-12-04T03:34:42.906Z,992.51
2018-12-04T03:35:42.905Z,992.52
2018-12-04T03:36:42.860Z,992.53
2018-12-04T03:37:42.830Z,992.58
2018-12-04T03:38:42.824Z,992.60
2018-12-04T03:39:42.871Z,992.69
2018-12-04T03:40:42.841Z,992.66
2018-12-04T03:41:42.814Z,992.70
2018-12-04T03:42:42.785Z,992.69
2018-12-04T03:43:42.831Z,992.69
2018-12-04T03:44:42.755Z,992.72
2018-12-04T03:45:42.752Z,992.74
2018-12-04T03:46:42.835Z,992.73
2018-12-04T03:47:42.727Z,992.82
2018-12-04T03:48:42.716Z,992.82
2018-12-04T03:49:42.706Z,992.93
2018-12-04T03:50:42.700Z,992.90
2018-12-04T03:51:42.706Z,992.91
2018-12-04T03:52:42.716Z,992.99
2018-12-04T03:53:42.665Z,993.05
2018-12-04T03:54:42.657Z,993.04
2018-12-04T03:55:42.634Z,993.08
2018-12-04T03:56:42.636Z,993.17
2018-12-04T03:57:42.648Z,993.08
2018-12-04T03:58:42.602Z,993.15
2018-12-04T03:59:42.617Z,993.19
2018-12-04T04:00:42.600Z,993.32
2018-12-04T04:01:42.581Z,993.31
2018-12-04T04:02:42.584Z,993.40
2018-12-04T04:03:42.579Z,993.44
2018-12-04T04:04:42.541Z,993.47
2018-12-04T04:05:42.534Z,993.53
2018-12-04T04:06:42.514Z,993.42
2018-12-04T04:07:42.517Z,993.51
2018-12-04T04:08:42.542Z,993.55
2018-12-04T04:09:42.525Z,993.63
2018-12-04T04:10:42.485Z,993.64
2018-12-04T04:11:42.469Z,993.69
2018-12-04T04:12:42.463Z,993.74
2018-12-04T04:13:42.474Z,993.78
2018-12-04T04:14:42.421Z,993.74
2018-12-04T04:15:42.415Z,993.94
2018-12-04T04:16:42.417Z,993.91
2018-12-04T04:17:42.412Z,993.83
2018-12-04T04:18:42.377Z,993.90
2018-12-04T04:19:42.384Z,993.90
2018-12-04T04:20:42.370Z,993.97
2018-12-04T04:21:42.367Z,993.91
2018-12-04T04:22:42.337Z,993.97
2018-12-04T04:23:42.351Z,994.06
2018-12-04T04:24:42.349Z,994.09
2018-12-04T04:25:42.308Z,994.07
2018-12-04T04:26:42.309Z,994.13
2018-12-04T04:27:42.285Z,994.14
2018-12-04T04:28:42.277Z,994.16
2018-12-04T04:29:42.286Z,994.20
2018-12-04T04:30:42.273Z,994.20
2018-12-04T04:31:42.242Z,994.23
2018-12-04T04:32:42.236Z,994.19
2018-12-04T04:33:42.218Z,994.15
2018-12-04T04:34:42.222Z,994.19
2018-12-04T04:35:42.211Z,994.22
2018-12-04T04:36:42.194Z,994.30
2018-12-04T04:37:42.171Z,994.28
2018-12-04T04:38:42.171Z,994.28
2018-12-04T04:39:42.162Z,994.34
2018-12-04T04:40:42.206Z,994.37
2018-12-04T04:41:42.133Z,994.37
2018-12-04T04:42:42.125Z,994.38
2018-12-04T04:43:42.146Z,994.48
2018-12-04T04:44:42.107Z,994.49
2018-12-04T04:45:42.101Z,994.43
2018-12-04T04:46:42.096Z,994.40
2018-12-04T04:47:42.059Z,994.40
2018-12-04T04:48:42.068Z,994.41
2018-12-04T04:49:42.047Z,994.42
2018-12-04T04:50:42.027Z,994.48
2018-12-04T04:51:42.047Z,994.49
2018-12-04T04:52:42.014Z,994.55
2018-12-04T04:53:41.997Z,994.65
2018-12-04T04:54:41.987Z,994.61
2018-12-04T04:55:41.997Z,994.66
2018-12-04T04:56:41.960Z,994.70
2018-12-04T04:57:41.973Z,994.63
2018-12-04T04:58:41.970Z,994.75
2018-12-04T04:59:41.976Z,994.73
2018-12-04T05:00:41.942Z,994.73
2018-12-04T05:01:41.940Z,994.81
2018-12-04T05:02:41.930Z,994.78
2018-12-04T05:03:41.892Z,994.81
2018-12-04T05:04:41.899Z,994.83
2018-12-04T05:05:41.862Z,994.87
2018-12-04T05:06:41.869Z,994.93
2018-12-04T05:07:41.871Z,995.00
2018-12-04T05:08:41.828Z,995.13
2018-12-04T05:09:41.823Z,995.10
2018-12-04T05:10:41.807Z,995.20
2018-12-04T05:11:41.799Z,995.25
2018-12-04T05:12:41.821Z,995.27
2018-12-04T05:13:41.797Z,995.36
2018-12-04T05:14:41.767Z,995.34
2018-12-04T05:15:41.763Z,995.39
2018-12-04T05:16:41.757Z,995.43
2018-12-04T05:17:41.756Z,995.50
2018-12-04T05:18:41.781Z,995.51
2018-12-04T05:19:41.717Z,995.60
2018-12-04T05:20:41.696Z,995.63
2018-12-04T05:21:41.687Z,995.67
2018-12-04T05:22:41.686Z,995.76
2018-12-04T05:23:41.699Z,995.80
2018-12-04T05:24:41.665Z,995.85
2018-12-04T05:25:41.648Z,995.86
2018-12-04T05:26:41.671Z,995.88
2018-12-04T05:27:41.622Z,995.91
2018-12-04T05:28:41.638Z,995.98
2018-12-04T05:29:41.627Z,996.03
2018-12-04T05:30:41.605Z,996.04
2018-12-04T05:31:41.580Z,996.06
2018-12-04T05:32:41.570Z,996.06
2018-12-04T05:33:41.560Z,996.17
2018-12-04T05:34:41.580Z,996.21
2018-12-04T05:35:41.545Z,996.13
2018-12-04T05:36:41.525Z,996.19
2018-12-04T05:37:41.520Z,996.24
2018-12-04T05:38:41.509Z,996.34
2018-12-04T05:39:41.525Z,996.27
2018-12-04T05:40:41.486Z,996.40
2018-12-04T05:41:41.471Z,996.37
2018-12-04T05:42:41.460Z,996.36
2018-12-04T05:43:41.443Z,996.43
2018-12-04T05:44:41.453Z,996.48
2018-12-04T05:45:41.445Z,996.47
2018-12-04T05:46:41.412Z,996.54
2018-12-04T05:47:41.407Z,996.59
2018-12-04T05:48:41.399Z,996.55
2018-12-04T05:49:41.378Z,996.62
2018-12-04T05:50:41.478Z,996.69
2018-12-04T05:51:41.363Z,996.68
2018-12-04T05:52:41.355Z,996.69
2018-12-04T05:53:41.347Z,996.75
2018-12-04T05:54:41.328Z,996.78
2018-12-04T05:55:41.319Z,996.72
2018-12-04T05:56:41.324Z,996.80
2018-12-04T05:57:41.301Z,996.79
2018-12-04T05:58:41.286Z,996.89
2018-12-04T05:59:41.279Z,996.89
2018-12-04T06:00:41.265Z,996.85
2018-12-04T06:01:41.279Z,996.84
2018-12-04T06:02:41.246Z,996.91
2018-12-04T06:03:41.267Z,996.88
2018-12-04T06:04:41.234Z,996.95
2018-12-04T06:05:41.221Z,996.93
2018-12-04T06:06:41.242Z,996.95
2018-12-04T06:07:41.185Z,996.98
2018-12-04T06:08:41.184Z,996.97
2018-12-04T06:09:41.173Z,996.98
2018-12-04T06:10:41.156Z,997.01
2018-12-04T06:11:41.146Z,997.09
2018-12-04T06:12:41.151Z,997.14
2018-12-04T06:13:41.115Z,997.10
2018-12-04T06:14:41.105Z,997.12
2018-12-04T06:15:41.096Z,997.09
2018-12-04T06:16:41.091Z,997.10
2018-12-04T06:17:41.137Z,997.08
2018-12-04T06:18:41.079Z,997.11
2018-12-04T06:19:41.058Z,997.16
2018-12-04T06:20:41.043Z,997.19
2018-12-04T06:21:41.039Z,997.21
2018-12-04T06:22:41.078Z,997.29
2018-12-04T06:23:41.009Z,997.34
2018-12-04T06:24:41.009Z,997.37
2018-12-04T06:25:41.010Z,997.40
2018-12-04T06:26:40.993Z,997.41
2018-12-04T06:27:40.968Z,997.42
2018-12-04T06:28:41.002Z,997.51
2018-12-04T06:29:40.939Z,997.49
2018-12-04T06:30:40.950Z,997.50
2018-12-04T06:31:40.916Z,997.57
2018-12-04T06:32:40.908Z,997.57
2018-12-04T06:33:40.948Z,997.63
2018-12-04T06:34:40.886Z,997.55
2018-12-04T06:35:40.873Z,997.64
2018-12-04T06:36:40.867Z,997.62
2018-12-04T06:37:40.873Z,997.65
2018-12-04T06:38:40.871Z,997.67
2018-12-04T06:39:40.860Z,997.69
2018-12-04T06:40:40.825Z,997.77
2018-12-04T06:41:40.838Z,997.77
2018-12-04T06:42:40.824Z,997.82
2018-12-04T06:43:40.809Z,997.80
2018-12-04T06:44:46.610Z,997.90
2018-12-04T06:45:41.771Z,997.89
2018-12-04T06:46:40.771Z,997.94
2018-12-04T06:47:40.740Z,998.01
2018-12-04T06:48:40.738Z,998.12
2018-12-04T06:49:40.765Z,998.17
2018-12-04T06:50:40.718Z,998.25
2018-12-04T06:51:40.705Z,998.24
2018-12-04T06:52:40.715Z,998.23
2018-12-04T06:53:40.689Z,998.31
2018-12-04T06:54:40.689Z,998.38
2018-12-04T06:55:40.698Z,998.49
2018-12-04T06:56:40.652Z,998.51
2018-12-04T06:57:40.672Z,998.56
2018-12-04T06:58:40.636Z,998.56
2018-12-04T06:59:40.627Z,998.67
2018-12-04T07:00:40.625Z,998.66
2018-12-04T07:01:40.606Z,998.77
2018-12-04T07:02:40.582Z,998.72
2018-12-04T07:03:40.578Z,998.80
2018-12-04T07:04:43.484Z,998.77
2018-12-04T07:05:40.577Z,998.87
2018-12-04T07:06:40.542Z,998.89
2018-12-04T07:07:40.531Z,998.96
2018-12-04T07:08:40.537Z,998.92
2018-12-04T07:09:40.511Z,998.97
2018-12-04T07:10:40.490Z,999.07
2018-12-04T07:11:40.513Z,999.12
2018-12-04T07:12:40.479Z,999.06
2018-12-04T07:13:40.464Z,999.13
2018-12-04T07:14:40.454Z,999.18
2018-12-04T07:15:40.478Z,999.16
2018-12-04T07:16:40.469Z,999.28
2018-12-04T07:17:40.420Z,999.21
2018-12-04T07:18:40.408Z,999.27
2018-12-04T07:19:40.395Z,999.35
2018-12-04T07:20:40.390Z,999.33
2018-12-04T07:21:40.378Z,999.39
2018-12-04T07:22:40.382Z,999.37
2018-12-04T07:23:40.347Z,999.44
2018-12-04T07:24:40.346Z,999.43
2018-12-04T07:25:40.328Z,999.49
2018-12-04T07:26:40.330Z,999.51
2018-12-04T07:27:40.345Z,999.50
2018-12-04T07:28:40.291Z,999.51
2018-12-04T07:29:40.475Z,999.55
2018-12-04T07:30:40.297Z,999.53
2018-12-04T07:31:40.264Z,999.56
2018-12-04T07:32:40.253Z,999.59
2018-12-04T07:33:40.256Z,999.58
2018-12-04T07:34:40.226Z,999.68
2018-12-04T07:35:40.300Z,999.68
2018-12-04T07:36:47.312Z,999.68
2018-12-04T07:37:40.198Z,999.72
2018-12-04T07:38:40.201Z,999.74
2018-12-04T07:39:40.177Z,999.76
2018-12-04T07:40:40.163Z,999.82
2018-12-04T07:41:40.151Z,999.79
2018-12-04T07:42:40.138Z,999.79
2018-12-04T07:43:40.178Z,999.86
2018-12-04T07:44:40.115Z,999.85
2018-12-04T07:45:40.114Z,999.91
2018-12-04T07:46:40.093Z,999.93
2018-12-04T07:47:40.089Z,999.90
2018-12-04T07:48:40.082Z,999.93
2018-12-04T07:49:40.102Z,999.93
2018-12-04T07:50:40.050Z,1000.01
2018-12-04T07:51:40.040Z,1000.01
2018-12-04T07:52:40.025Z,1000.04
2018-12-04T07:53:40.014Z,1000.08
2018-12-04T07:54:40.045Z,1000.10
2018-12-04T07:55:40.000Z,1000.17
2018-12-04T07:56:39.983Z,1000.21
2018-12-04T07:57:39.975Z,1000.19
2018-12-04T07:58:39.985Z,1000.23
2018-12-04T07:59:39.996Z,1000.28
2018-12-04T08:00:39.941Z,1000.35
2018-12-04T08:01:39.933Z,1000.35
2018-12-04T08:02:39.940Z,1000.33
2018-12-04T08:03:39.932Z,1000.36
2018-12-04T08:04:39.898Z,1000.35
2018-12-04T08:05:39.927Z,1000.39
2018-12-04T08:06:39.877Z,1000.41
2018-12-04T08:07:39.863Z,1000.43
2018-12-04T08:08:47.453Z,1000.46
2018-12-04T08:09:39.838Z,1000.48
2018-12-04T08:10:39.848Z,1000.49
2018-12-04T08:11:39.823Z,1000.56
2018-12-04T08:12:39.813Z,1000.52
2018-12-04T08:13:39.813Z,1000.60
2018-12-04T08:14:39.783Z,1000.63
2018-12-04T08:15:39.821Z,1000.68
2018-12-04T08:16:39.759Z,1000.71
2018-12-04T08:17:39.747Z,1000.68
2018-12-04T08:18:39.742Z,1000.74
2018-12-04T08:19:39.740Z,1000.75
2018-12-04T08:20:39.715Z,1000.79
2018-12-04T08:21:39.734Z,1000.81
2018-12-04T08:22:39.702Z,1000.88
2018-12-04T08:23:39.695Z,1000.87
2018-12-04T08:24:39.674Z,1000.85
2018-12-04T08:25:39.771Z,1000.88
2018-12-04T08:26:39.694Z,1000.92
2018-12-04T08:27:39.637Z,1000.97
2018-12-04T08:28:39.650Z,1001.03
2018-12-04T08:29:39.620Z,1001.05
2018-12-04T08:30:39.650Z,1001.00
2018-12-04T08:31:39.608Z,1001.03
2018-12-04T08:32:39.596Z,1001.10
2018-12-04T08:33:39.580Z,1001.08
2018-12-04T08:34:39.572Z,1001.11
2018-12-04T08:35:39.570Z,1001.11
2018-12-04T08:36:39.584Z,1001.14
2018-12-04T08:37:39.550Z,1001.26
2018-12-04T08:38:39.518Z,1001.22
2018-12-04T08:39:39.508Z,1001.24
2018-12-04T08:40:39.511Z,1001.31
2018-12-04T08:41:39.520Z,1001.29
2018-12-04T08:42:39.490Z,1001.38
2018-12-04T08:43:39.470Z,1001.40
2018-12-04T08:44:39.466Z,1001.42
2018-12-04T08:45:39.443Z,1001.41
2018-12-04T08:46:39.467Z,1001.42
2018-12-04T08:47:39.442Z,1001.46
2018-12-04T08:48:39.409Z,1001.49
2018-12-04T08:49:39.429Z,1001.52
2018-12-04T08:50:39.398Z,1001.57
2018-12-04T08:51:39.389Z,1001.55
2018-12-04T08:52:39.393Z,1001.66
2018-12-04T08:53:39.365Z,1001.63
2018-12-04T08:54:39.362Z,1001.64
2018-12-04T08:55:39.334Z,1001.76
2018-12-04T08:56:39.331Z,1001.69
2018-12-04T08:57:39.342Z,1001.76
2018-12-04T08:58:39.314Z,1001.78
2018-12-04T08:59:39.298Z,1001.78
2018-12-04T09:00:39.289Z,1001.80
2018-12-04T09:01:39.278Z,1001.84
2018-12-04T09:02:39.264Z,1001.87
2018-12-04T09:03:39.271Z,1001.91
2018-12-04T09:04:39.244Z,1001.98
2018-12-04T09:05:39.244Z,1002.02
2018-12-04T09:06:39.225Z,1002.04
2018-12-04T09:07:39.216Z,1002.00
2018-12-04T09:08:39.395Z,1002.07
2018-12-04T09:09:39.214Z,1002.11
2018-12-04T09:10:39.207Z,1002.05
2018-12-04T09:11:39.163Z,1002.03
2018-12-04T09:12:39.167Z,1002.20
2018-12-04T09:13:39.143Z,1002.16
2018-12-04T09:14:39.150Z,1002.16
2018-12-04T09:15:39.188Z,1002.21
2018-12-04T09:16:39.137Z,1002.19
2018-12-04T09:17:39.092Z,1002.22
2018-12-04T09:18:39.136Z,1002.27
2018-12-04T09:19:39.103Z,1002.26
2018-12-04T09:20:39.087Z,1002.30
2018-12-04T09:21:39.099Z,1002.32
2018-12-04T09:22:39.063Z,1002.40
2018-12-04T09:23:39.039Z,1002.36
2018-12-04T09:24:46.206Z,1002.34
2018-12-04T09:25:39.040Z,1002.34
2018-12-04T09:26:39.039Z,1002.41
2018-12-04T09:27:38.985Z,1002.34
2018-12-04T09:28:39.037Z,1002.41
2018-12-04T09:29:39.033Z,1002.46
2018-12-04T09:30:38.948Z,1002.45
2018-12-04T09:31:38.942Z,1002.40
2018-12-04T09:32:38.944Z,1002.42
2018-12-04T09:33:38.988Z,1002.47
2018-12-04T09:34:38.912Z,1002.49
2018-12-04T09:35:38.899Z,1002.52
2018-12-04T09:36:38.885Z,1002.49
2018-12-04T09:37:38.914Z,1002.54
2018-12-04T09:38:38.862Z,1002.53
2018-12-04T09:39:38.860Z,1002.54
2018-12-04T09:40:38.847Z,1002.55
2018-12-04T09:41:38.861Z,1002.61
2018-12-04T09:42:38.817Z,1002.59
2018-12-04T09:43:38.825Z,1002.57
2018-12-04T09:44:38.806Z,1002.53
2018-12-04T09:45:38.782Z,1002.61
2018-12-04T09:46:38.799Z,1002.58
2018-12-04T09:47:38.796Z,1002.63
2018-12-04T09:48:38.799Z,1002.60
2018-12-04T09:49:38.742Z,1002.60
2018-12-04T09:50:38.758Z,1002.71
2018-12-04T09:51:38.717Z,1002.55
2018-12-04T09:52:38.714Z,1002.64
2018-12-04T09:53:38.725Z,1002.63
2018-12-04T09:54:38.732Z,1002.68
2018-12-04T09:55:38.704Z,1002.69
2018-12-04T09:56:38.664Z,1002.72
2018-12-04T09:57:38.651Z,1002.72
2018-12-04T09:58:38.652Z,1002.77
2018-12-04T09:59:39.637Z,1002.76
2018-12-04T10:00:38.637Z,1002.81
2018-12-04T10:01:38.613Z,1002.78
2018-12-04T10:02:38.600Z,1002.77
2018-12-04T10:03:38.591Z,1002.81
2018-12-04T10:04:38.621Z,1002.86
2018-12-04T10:05:38.567Z,1002.90
2018-12-04T10:06:38.571Z,1002.88
2018-12-04T10:07:38.546Z,1002.90
2018-12-04T10:08:38.542Z,1002.85
2018-12-04T10:09:38.557Z,1002.94
2018-12-04T10:10:38.535Z,1002.84
2018-12-04T10:11:38.503Z,1002.91
2018-12-04T10:12:38.499Z,1002.87
2018-12-04T10:13:38.479Z,1002.85
2018-12-04T10:14:38.467Z,1002.88
2018-12-04T10:15:38.486Z,1002.96
2018-12-04T10:16:38.443Z,1002.92
2018-12-04T10:17:38.432Z,1002.93
2018-12-04T10:18:38.530Z,1002.95
2018-12-04T10:19:38.456Z,1002.97
2018-12-04T10:20:38.409Z,1002.95
2018-12-04T10:21:38.417Z,1003.06
2018-12-04T10:22:38.378Z,1003.08
2018-12-04T10:23:38.368Z,1003.08
2018-12-04T10:24:38.358Z,1003.09
2018-12-04T10:25:38.344Z,1003.09
2018-12-04T10:26:38.374Z,1003.11
2018-12-04T10:27:38.325Z,1003.14
2018-12-04T10:28:38.314Z,1003.12
2018-12-04T10:29:38.308Z,1003.19
2018-12-04T10:30:38.291Z,1003.13
2018-12-04T10:31:38.280Z,1003.15
2018-12-04T10:32:38.309Z,1003.18
2018-12-04T10:33:38.266Z,1003.25
2018-12-04T10:34:38.242Z,1003.18
2018-12-04T10:35:38.235Z,1003.24
2018-12-04T10:36:38.229Z,1003.26
2018-12-04T10:37:38.249Z,1003.29
2018-12-04T10:38:38.206Z,1003.27
2018-12-04T10:39:38.195Z,1003.27
2018-12-04T10:40:38.177Z,1003.33
2018-12-04T10:41:38.186Z,1003.30
2018-12-04T10:42:38.230Z,1003.30
2018-12-04T10:43:38.146Z,1003.34
2018-12-04T10:44:38.139Z,1003.34
2018-12-04T10:45:38.128Z,1003.32
2018-12-04T10:46:38.111Z,1003.37
2018-12-04T10:47:38.139Z,1003.36
2018-12-04T10:48:45.754Z,1003.34
2018-12-04T10:49:38.087Z,1003.36
2018-12-04T10:50:38.067Z,1003.41
2018-12-04T10:51:38.073Z,1003.44
2018-12-04T10:52:38.048Z,1003.37
2018-12-04T10:53:38.035Z,1003.45
2018-12-04T10:54:38.031Z,1003.49
2018-12-04T10:55:38.010Z,1003.41
2018-12-04T10:56:38.033Z,1003.49
2018-12-04T10:57:38.012Z,1003.55
2018-12-04T10:58:38.000Z,1003.49
2018-12-04T10:59:37.984Z,1003.52
2018-12-04T11:00:37.979Z,1003.56
2018-12-04T11:01:37.944Z,1003.66
2018-12-04T11:02:37.953Z,1003.59
2018-12-04T11:04:48.613Z,1003.66
2018-12-04T11:05:38.193Z,1003.69
2018-12-04T11:06:38.092Z,1003.69
2018-12-04T11:07:38.582Z,1003.64
2018-12-04T11:08:37.952Z,1003.67
2018-12-04T11:09:37.977Z,1003.71
2018-12-04T11:10:37.932Z,1003.69
2018-12-04T11:11:37.929Z,1003.72
2018-12-04T11:12:37.894Z,1003.69
2018-12-04T11:13:37.880Z,1003.70
2018-12-04T11:14:37.904Z,1003.71
2018-12-04T11:15:37.859Z,1003.74
2018-12-04T11:16:37.861Z,1003.79
2018-12-04T11:17:37.844Z,1003.75
2018-12-04T11:18:37.874Z,1003.75
2018-12-04T11:19:37.835Z,1003.73
2018-12-04T11:20:37.831Z,1003.77
2018-12-04T11:21:37.841Z,1003.78
2018-12-04T11:22:37.733Z,1003.78
2018-12-04T11:23:37.778Z,1003.79
2018-12-04T11:24:37.744Z,1003.82
2018-12-04T11:25:37.743Z,1003.87
2018-12-04T11:26:37.756Z,1003.87
2018-12-04T11:27:37.775Z,1003.89
2018-12-04T11:28:37.752Z,1003.95
2018-12-04T11:29:37.687Z,1004.00
2018-12-04T11:30:37.707Z,1003.96
2018-12-04T11:31:37.697Z,1004.01
2018-12-04T11:32:37.690Z,1004.04
2018-12-04T11:33:37.631Z,1004.04
2018-12-04T11:34:37.707Z,1004.03
2018-12-04T11:35:37.673Z,1004.00
2018-12-04T11:36:37.660Z,1004.03
2018-12-04T11:37:37.609Z,1004.02
2018-12-04T11:38:37.674Z,1004.06
2018-12-04T11:39:37.604Z,1004.13
2018-12-04T11:40:37.603Z,1004.09
2018-12-04T11:41:37.579Z,1004.12
2018-12-04T11:42:37.565Z,1004.12
2018-12-04T11:43:37.690Z,1004.20
2018-12-04T11:44:37.559Z,1004.18
2018-12-04T11:45:37.621Z,1004.17
2018-12-04T11:46:37.654Z,1004.21
2018-12-04T11:47:37.609Z,1004.19
2018-12-04T11:48:37.596Z,1004.21
2018-12-04T11:49:37.575Z,1004.26
2018-12-04T11:50:37.536Z,1004.28
2018-12-04T11:51:37.441Z,1004.38
2018-12-04T11:52:37.466Z,1004.34
2018-12-04T11:53:37.429Z,1004.35
2018-12-04T11:54:37.507Z,1004.33
2018-12-04T11:55:37.405Z,1004.39
2018-12-04T11:56:37.419Z,1004.32
2018-12-04T11:57:37.620Z,1004.36
2018-12-04T11:58:37.386Z,1004.30
2018-12-04T11:59:37.401Z,1004.40
2018-12-04T12:00:37.385Z,1004.35
2018-12-04T12:01:37.353Z,1004.40
2018-12-04T12:02:37.371Z,1004.37
2018-12-04T12:03:37.315Z,1004.39
2018-12-04T12:04:37.357Z,1004.39
2018-12-04T12:05:37.325Z,1004.46
2018-12-04T12:06:37.409Z,1004.43
2018-12-04T12:07:37.313Z,1004.52
2018-12-04T12:08:37.278Z,1004.43
2018-12-04T12:09:37.255Z,1004.52
2018-12-04T12:10:37.293Z,1004.49
2018-12-04T12:11:37.330Z,1004.49
2018-12-04T12:12:37.261Z,1004.53
2018-12-04T12:13:37.245Z,1004.52
2018-12-04T12:14:37.246Z,1004.53
2018-12-04T12:15:37.217Z,1004.55
2018-12-04T12:16:37.210Z,1004.54
2018-12-04T12:17:37.241Z,1004.57
2018-12-04T12:18:37.188Z,1004.62
2018-12-04T12:19:37.157Z,1004.58
2018-12-04T12:20:37.185Z,1004.60
2018-12-04T12:21:37.235Z,1004.68